createdAt,value
2019-04-04T00:01:24.014Z,10.5
2019-04-04T00:06:26.976Z,10.5
2019-04-04T00:11:28.965Z,10.4
2019-04-04T00:16:31.389Z,10.3
2019-04-04T00:21:33.992Z,10.2
2019-04-04T00:26:36.234Z,10
2019-04-04T00:31:38.702Z,9.9
2019-04-04T00:36:41.166Z,9.8
2019-04-04T00:41:44.840Z,9.6
2019-04-04T00:46:45.970Z,9.6
2019-04-04T00:51:48.411Z,9.6
2019-04-04T00:56:50.871Z,9.6
2019-04-04T01:01:54.997Z,9.6
2019-04-04T01:06:55.733Z,9.5
2019-04-04T01:11:58.170Z,9.4
2019-04-04T01:17:02.019Z,9.4
2019-04-04T01:22:03.047Z,9.3
2019-04-04T01:27:06.199Z,9.3
2019-04-04T01:32:07.928Z,9.3
2019-04-04T01:37:10.363Z,9.2
2019-04-04T01:42:12.827Z,9.1
2019-04-04T01:47:16.924Z,9
2019-04-04T01:52:17.688Z,8.9
2019-04-04T01:57:20.343Z,8.8
2019-04-04T02:02:22.590Z,8.7
2019-04-04T02:07:25.087Z,8.7
2019-04-04T02:12:27.446Z,8.6
2019-04-04T02:17:29.884Z,8.5
2019-04-04T02:22:32.320Z,8.5
2019-04-04T02:27:37.492Z,8.4
2019-04-04T02:32:37.239Z,8.3
2019-04-04T02:37:39.851Z,8.2
2019-04-04T02:42:42.084Z,8.1
2019-04-04T02:47:44.536Z,8
2019-04-04T02:52:47.038Z,7.9
2019-04-04T02:57:49.527Z,7.8
2019-04-04T03:02:51.971Z,7.7
2019-04-04T03:07:54.392Z,7.6
2019-04-04T03:12:58.448Z,7.6
2019-04-04T03:17:59.208Z,7.6
2019-04-04T03:23:01.663Z,7.6
2019-04-04T03:28:04.073Z,7.6
2019-04-04T03:33:06.628Z,7.6
2019-04-04T03:38:10.648Z,7.5
2019-04-04T03:43:15.670Z,7.4
2019-04-04T03:48:16.737Z,7.3
2019-04-04T03:53:17.230Z,7.2
2019-04-04T03:58:18.704Z,7.1
2019-04-04T04:03:22.610Z,7.1
2019-04-04T04:08:23.565Z,7
2019-04-04T04:13:26.041Z,6.9
2019-04-04T04:18:28.453Z,6.7
2019-04-04T04:23:30.891Z,6.6
2019-04-04T04:28:33.321Z,6.5
2019-04-04T04:33:35.775Z,6.4
2019-04-04T04:38:38.206Z,6.3
2019-04-04T04:43:40.639Z,6.2
2019-04-04T04:48:43.088Z,6.2
2019-04-04T04:53:45.547Z,6.1
2019-04-04T04:58:47.971Z,6.1
2019-04-04T05:03:50.882Z,6.1
2019-04-04T05:08:52.996Z,6.1
2019-04-04T05:13:56.017Z,6.2
2019-04-04T05:18:57.764Z,6.3
2019-04-04T05:24:00.186Z,6.3
2019-04-04T05:29:02.611Z,6.4
2019-04-04T05:34:05.094Z,6.5
2019-04-04T05:44:10.406Z,6.6
2019-04-04T05:49:12.384Z,6.8
2019-04-04T05:54:14.843Z,6.9
2019-04-04T05:59:17.366Z,7.1
2019-04-04T06:04:20.248Z,7.3
2019-04-04T06:09:22.189Z,7.6
2019-04-04T06:14:24.588Z,7.8
2019-04-04T06:19:27.029Z,8
2019-04-04T06:24:29.500Z,8.1
2019-04-04T06:29:31.976Z,8.3
2019-04-04T06:34:34.354Z,8.4
2019-04-04T06:39:36.987Z,8.6
2019-04-04T06:44:39.243Z,8.7
2019-04-04T06:49:41.669Z,8.9
2019-04-04T06:54:44.127Z,9
2019-04-04T06:59:46.605Z,9.1
2019-04-04T07:04:48.979Z,9.2
2019-04-04T07:09:51.789Z,9.3
2019-04-04T07:14:53.933Z,9.4
2019-04-04T07:19:56.337Z,9.4
2019-04-04T07:25:01.043Z,9.4
2019-04-04T07:30:01.194Z,9.5
2019-04-04T07:35:03.633Z,9.5
2019-04-04T07:40:06.091Z,9.4
2019-04-04T07:45:08.593Z,9.5
2019-04-04T07:50:10.951Z,9.5
2019-04-04T07:55:13.685Z,9.6
2019-04-04T08:00:15.830Z,9.7
2019-04-04T08:05:18.282Z,9.8
2019-04-04T08:10:21.213Z,9.9
2019-04-04T08:15:23.149Z,10
2019-04-04T08:20:25.593Z,10.1
2019-04-04T08:25:28.656Z,10.2
2019-04-04T08:30:30.463Z,10.3
2019-04-04T08:35:32.932Z,10.4
2019-04-04T08:40:35.520Z,10.6
2019-04-04T08:45:37.785Z,10.7
2019-04-04T08:50:40.327Z,10.8
2019-04-04T09:00:45.128Z,11
2019-04-04T09:05:47.551Z,11.2
2019-04-04T09:10:50.029Z,11.3
2019-04-04T09:15:52.427Z,11.4
2019-04-04T09:20:54.873Z,11.5
2019-04-04T09:26:05.212Z,11.7
2019-04-04T09:30:59.779Z,11.8
2019-04-04T09:36:02.384Z,11.9
2019-04-04T09:41:04.697Z,12.1
2019-04-04T09:46:07.064Z,12.3
2019-04-04T09:56:11.965Z,12.8
2019-04-04T10:01:14.391Z,13
2019-04-04T10:06:16.839Z,13.3
2019-04-04T10:11:19.278Z,13.5
2019-04-04T10:16:21.835Z,13.7
2019-04-04T10:26:26.613Z,14.1
2019-04-04T10:31:29.101Z,14.3
2019-04-04T10:36:31.748Z,14.6
2019-04-04T10:41:33.948Z,14.8
2019-04-04T10:51:39.063Z,15.5
2019-04-04T10:56:41.669Z,15.8
2019-04-04T11:01:43.680Z,16.2
2019-04-04T11:06:46.315Z,16.4
2019-04-04T11:11:48.603Z,16.8
2019-04-04T11:16:51.020Z,17.1
2019-04-04T11:21:53.456Z,17.3
2019-04-04T11:26:55.883Z,17.6
2019-04-04T11:31:58.332Z,17.9
2019-04-04T11:37:00.815Z,18.3
2019-04-04T11:42:03.269Z,18.7
2019-04-04T11:47:05.645Z,18.8
2019-04-04T11:52:08.179Z,18.7
2019-04-04T11:57:10.524Z,18.9
2019-04-04T12:02:12.961Z,19.3
2019-04-04T12:07:15.478Z,19.8
2019-04-04T12:12:17.854Z,20.2
2019-04-04T12:17:20.391Z,20.8
2019-04-04T12:22:22.827Z,21.2
2019-04-04T12:27:25.178Z,21.8
2019-04-04T12:32:27.701Z,22.4
2019-04-04T12:37:30.148Z,23
2019-04-04T12:42:32.758Z,23.6
2019-04-04T12:47:34.980Z,24.1
2019-04-04T12:52:37.503Z,24.2
2019-04-04T12:57:40.074Z,24.7
2019-04-04T13:02:42.274Z,25.4
2019-04-04T13:12:47.247Z,25.8
2019-04-04T13:17:49.618Z,26.2
2019-04-04T13:22:52.104Z,27
2019-04-04T13:27:54.499Z,27.2
2019-04-04T13:32:56.933Z,27.4
2019-04-04T13:37:59.373Z,28.4
2019-04-04T13:43:01.850Z,28.5
2019-04-04T13:48:04.378Z,28.8
2019-04-04T13:53:06.759Z,29.1
2019-04-04T13:58:09.143Z,29.3
2019-04-04T14:03:11.591Z,29.6
2019-04-04T14:08:14.437Z,29.9
2019-04-04T14:13:16.454Z,29.9
2019-04-04T14:18:18.912Z,29.7
2019-04-04T14:23:21.974Z,29.6
2019-04-04T14:28:23.793Z,29.2
2019-04-04T14:33:26.227Z,28.2
2019-04-04T14:38:28.665Z,27.9
2019-04-04T14:43:31.122Z,28.1
2019-04-04T14:48:33.546Z,28.3
2019-04-04T14:53:36.029Z,27.9
2019-04-04T14:58:38.444Z,27.6
2019-04-04T15:03:42.264Z,27.9
2019-04-04T15:08:43.309Z,27.9
2019-04-04T15:13:45.872Z,27.5
2019-04-04T15:18:48.197Z,27.5
2019-04-04T15:23:50.798Z,27.5
2019-04-04T15:28:53.075Z,27.9
2019-04-04T15:33:55.541Z,29.4
2019-04-04T15:38:57.954Z,30.2
2019-04-04T15:44:00.432Z,30.8
2019-04-04T15:49:02.844Z,31.5
2019-04-04T15:54:05.340Z,31.7
2019-04-04T15:59:07.838Z,32
2019-04-04T16:04:10.323Z,31.3
2019-04-04T16:09:12.644Z,31.2
2019-04-04T16:14:15.045Z,31.6
2019-04-04T16:19:17.531Z,31.3
2019-04-04T16:24:19.999Z,30.3
2019-04-04T16:29:22.503Z,29.4
2019-04-04T16:34:25.025Z,28.5
2019-04-04T16:39:27.625Z,27.2
2019-04-04T16:44:29.711Z,25.7
2019-04-04T16:49:32.151Z,24.3
2019-04-04T16:54:34.590Z,23
2019-04-04T16:59:37.081Z,21.8
2019-04-04T17:04:39.539Z,20.8
2019-04-04T17:09:42.352Z,20.1
2019-04-04T17:14:44.548Z,19.6
2019-04-04T17:19:46.876Z,19
2019-04-04T17:24:49.268Z,18.5
2019-04-04T17:29:51.735Z,18
2019-04-04T17:34:54.155Z,17.5
2019-04-04T17:39:56.926Z,17.1
2019-04-04T17:45:01.129Z,16.8
2019-04-04T17:50:01.739Z,16.5
2019-04-04T17:55:03.976Z,16.2
2019-04-04T18:00:06.429Z,15.8
2019-04-04T18:05:08.822Z,15.6
2019-04-04T18:10:11.665Z,15.4
2019-04-04T18:15:13.679Z,15.4
2019-04-04T18:20:16.093Z,15.2
2019-04-04T18:25:18.547Z,15.1
2019-04-04T18:30:21.096Z,14.9
2019-04-04T18:35:23.417Z,14.8
2019-04-04T18:40:26.249Z,14.8
2019-04-04T18:45:28.390Z,14.7
2019-04-04T18:50:30.735Z,14.6
2019-04-04T18:55:33.321Z,14.5
2019-04-04T19:00:35.728Z,14.4
2019-04-04T19:05:38.087Z,14.3
2019-04-04T19:10:40.843Z,14.3
2019-04-04T19:15:42.948Z,14.2
2019-04-04T19:20:45.414Z,14.2
2019-04-04T19:25:47.863Z,14.1
2019-04-04T19:30:50.359Z,13.9
2019-04-04T19:35:52.759Z,13.9
2019-04-04T19:45:57.591Z,13.7
2019-04-04T19:51:00.051Z,13.7
2019-04-04T19:56:02.478Z,13.6
2019-04-04T20:01:04.912Z,13.5
2019-04-04T20:06:07.353Z,13.4
2019-04-04T20:11:09.783Z,13.4
2019-04-04T20:16:12.529Z,13.4
2019-04-04T20:21:14.705Z,13.3
2019-04-04T20:26:17.129Z,13.3
2019-04-04T20:31:19.645Z,13.3
2019-04-04T20:36:22.074Z,13.2
2019-04-04T20:41:24.810Z,13.2
2019-04-04T20:46:26.993Z,13.1
2019-04-04T20:51:29.329Z,13
2019-04-04T20:56:31.821Z,13
2019-04-04T21:01:34.418Z,12.9
2019-04-04T21:06:37.104Z,12.7
2019-04-04T21:11:39.408Z,12.6
2019-04-04T21:16:41.711Z,12.5
2019-04-04T21:21:43.966Z,12.5
2019-04-04T21:26:46.416Z,12.4
2019-04-04T21:31:48.930Z,12.3
2019-04-04T21:36:51.344Z,12.1
2019-04-04T21:41:53.750Z,11.8
2019-04-04T21:46:56.149Z,11.5
2019-04-04T21:51:58.597Z,11.3
2019-04-04T21:57:01.043Z,11.2
2019-04-04T22:02:03.510Z,11.1
2019-04-04T22:07:06.069Z,11
2019-04-04T22:17:10.831Z,10.8
2019-04-04T22:22:13.249Z,10.7
2019-04-04T22:27:15.656Z,10.6
2019-04-04T22:32:18.191Z,10.5
2019-04-04T22:37:20.625Z,10.4
2019-04-04T22:42:22.997Z,10.4
2019-04-04T22:47:25.445Z,10.3
2019-04-04T22:52:27.868Z,10.3
2019-04-04T22:57:30.354Z,10.3
2019-04-04T23:02:32.757Z,10.2
2019-04-04T23:07:36.623Z,10
2019-04-04T23:12:37.633Z,10
2019-04-04T23:17:40.070Z,9.9
2019-04-04T23:22:52.083Z,9.9
2019-04-04T23:27:44.959Z,10
2019-04-04T23:32:47.405Z,10.1
2019-04-04T23:37:49.932Z,10.1
2019-04-04T23:42:52.267Z,10.2
2019-04-04T23:47:54.728Z,10.2
2019-04-04T23:52:57.156Z,10.2
2019-04-04T23:57:59.601Z,10.1
